createdAt,value
2017-09-05T00:00:56.869Z,86.09
2017-09-05T00:01:56.858Z,86.05
2017-09-05T00:02:56.847Z,86.28
2017-09-05T00:03:56.832Z,86.18
2017-09-05T00:04:56.821Z,85.95
2017-09-05T00:05:56.808Z,86.14
2017-09-05T00:06:56.948Z,86.09
2017-09-05T00:07:56.784Z,86.18
2017-09-05T00:08:56.775Z,86.28
2017-09-05T00:09:56.759Z,85.80
2017-09-05T00:10:56.746Z,85.71
2017-09-05T00:11:56.733Z,85.99
2017-09-05T00:12:56.877Z,85.57
2017-09-05T00:13:56.709Z,85.24
2017-09-05T00:14:56.697Z,85.00
2017-09-05T00:15:56.683Z,83.76
2017-09-05T00:16:56.670Z,83.10
2017-09-05T00:17:56.658Z,83.48
2017-09-05T00:18:56.796Z,84.24
2017-09-05T00:19:56.631Z,84.14
2017-09-05T00:20:56.622Z,84.62
2017-09-05T00:21:56.607Z,84.09
2017-09-05T00:22:56.595Z,84.05
2017-09-05T00:23:56.583Z,84.62
2017-09-05T00:24:56.721Z,84.33
2017-09-05T00:25:56.557Z,85.00
2017-09-05T00:26:56.541Z,84.52
2017-09-05T00:27:56.531Z,84.43
2017-09-05T00:28:56.524Z,84.91
2017-09-05T00:29:56.506Z,84.91
2017-09-05T00:30:56.643Z,85.19
2017-09-05T00:31:56.480Z,84.81
2017-09-05T00:32:56.467Z,85.28
2017-09-05T00:33:56.451Z,85.38
2017-09-05T00:34:56.441Z,85.19
2017-09-05T00:35:56.428Z,85.14
2017-09-05T00:36:56.565Z,85.28
2017-09-05T00:37:56.398Z,85.10
2017-09-05T00:38:56.390Z,85.19
2017-09-05T00:39:56.378Z,85.19
2017-09-05T00:40:56.364Z,85.10
2017-09-05T00:41:56.349Z,85.14
2017-09-05T00:42:56.487Z,85.14
2017-09-05T00:43:56.324Z,85.90
2017-09-05T00:44:56.312Z,85.86
2017-09-05T00:45:56.299Z,85.66
2017-09-05T00:46:56.285Z,85.80
2017-09-05T00:47:56.272Z,86.18
2017-09-05T00:48:56.411Z,86.18
2017-09-05T00:49:56.248Z,85.99
2017-09-05T00:50:56.271Z,86.33
2017-09-05T00:51:56.222Z,86.71
2017-09-05T00:52:56.211Z,86.80
2017-09-05T00:53:56.195Z,86.71
2017-09-05T00:54:56.336Z,86.61
2017-09-05T00:55:56.172Z,86.80
2017-09-05T00:56:56.160Z,86.61
2017-09-05T00:57:56.149Z,87.19
2017-09-05T00:58:56.135Z,86.99
2017-09-05T00:59:56.121Z,87.23
2017-09-05T01:00:56.260Z,87.42
2017-09-05T01:01:56.099Z,87.28
2017-09-05T01:02:56.085Z,87.09
2017-09-05T01:03:56.071Z,87.38
2017-09-05T01:04:56.057Z,87.19
2017-09-05T01:05:56.046Z,87.52
2017-09-05T01:06:56.184Z,87.19
2017-09-05T01:07:56.019Z,87.57
2017-09-05T01:08:56.009Z,87.09
2017-09-05T01:09:55.993Z,87.23
2017-09-05T01:10:55.985Z,87.28
2017-09-05T01:11:55.970Z,86.61
2017-09-05T01:12:56.108Z,86.43
2017-09-05T01:13:55.944Z,86.33
2017-09-05T01:14:55.930Z,85.57
2017-09-05T01:15:55.918Z,86.43
2017-09-05T01:16:55.908Z,86.33
2017-09-05T01:17:55.891Z,86.05
2017-09-05T01:18:56.031Z,85.57
2017-09-05T01:19:55.868Z,86.24
2017-09-05T01:20:55.856Z,86.33
2017-09-05T01:21:55.840Z,86.80
2017-09-05T01:22:55.829Z,87.57
2017-09-05T01:23:55.817Z,86.90
2017-09-05T01:24:55.804Z,87.66
2017-09-05T01:25:55.941Z,87.19
2017-09-05T01:26:55.928Z,87.09
2017-09-05T01:27:55.766Z,87.57
2017-09-05T01:28:55.751Z,86.71
2017-09-05T01:29:55.739Z,87.57
2017-09-05T01:30:55.724Z,87.47
2017-09-05T01:31:55.711Z,87.38
2017-09-05T01:32:55.851Z,87.47
2017-09-05T01:33:55.688Z,87.57
2017-09-05T01:34:55.673Z,87.19
2017-09-05T01:35:55.660Z,87.66
2017-09-05T01:36:55.650Z,88.33
2017-09-05T01:37:55.636Z,88.23
2017-09-05T01:38:55.773Z,88.61
2017-09-05T01:39:55.612Z,88.42
2017-09-05T01:40:55.599Z,88.42
2017-09-05T01:41:55.583Z,88.90
2017-09-05T01:42:55.573Z,88.13
2017-09-05T01:43:55.558Z,88.23
2017-09-05T01:44:55.548Z,87.95
2017-09-05T01:45:55.533Z,88.23
2017-09-05T01:46:55.520Z,88.13
2017-09-05T01:47:55.519Z,88.23
2017-09-05T01:48:55.643Z,88.13
2017-09-05T01:49:55.480Z,87.95
2017-09-05T01:50:55.469Z,88.04
2017-09-05T01:51:55.455Z,87.95
2017-09-05T01:52:55.444Z,88.52
2017-09-05T01:53:55.430Z,89.00
2017-09-05T01:54:55.665Z,88.71
2017-09-05T01:55:55.405Z,88.04
2017-09-05T01:56:55.392Z,88.33
2017-09-05T01:57:55.376Z,87.95
2017-09-05T01:58:55.365Z,87.95
2017-09-05T01:59:55.353Z,87.95
2017-09-05T02:00:55.541Z,88.13
2017-09-05T02:01:55.328Z,88.23
2017-09-05T02:02:55.316Z,88.23
2017-09-05T02:03:55.303Z,87.95
2017-09-05T02:04:55.591Z,88.23
2017-09-05T02:05:55.278Z,88.52
2017-09-05T02:06:55.415Z,88.61
2017-09-05T02:07:55.249Z,88.33
2017-09-05T02:08:55.238Z,87.95
2017-09-05T02:09:55.224Z,87.95
2017-09-05T02:10:55.243Z,88.23
2017-09-05T02:11:55.202Z,88.33
2017-09-05T02:12:55.336Z,88.13
2017-09-05T02:13:55.174Z,88.13
2017-09-05T02:14:55.161Z,87.95
2017-09-05T02:15:55.149Z,88.13
2017-09-05T02:16:55.137Z,88.33
2017-09-05T02:17:55.125Z,88.71
2017-09-05T02:18:55.265Z,88.52
2017-09-05T02:19:55.099Z,89.00
2017-09-05T02:20:55.087Z,88.61
2017-09-05T02:21:55.074Z,89.00
2017-09-05T02:22:55.059Z,88.61
2017-09-05T02:23:55.047Z,88.80
2017-09-05T02:24:55.184Z,89.00
2017-09-05T02:25:55.025Z,89.18
2017-09-05T02:26:55.010Z,89.18
2017-09-05T02:27:54.996Z,89.47
2017-09-05T02:28:54.983Z,89.18
2017-09-05T02:29:54.972Z,89.09
2017-09-05T02:30:54.959Z,88.61
2017-09-05T02:31:54.948Z,88.80
2017-09-05T02:32:54.935Z,89.09
2017-09-05T02:33:54.921Z,89.37
2017-09-05T02:34:54.909Z,89.09
2017-09-05T02:35:55.044Z,88.61
2017-09-05T02:36:54.880Z,88.80
2017-09-05T02:37:54.865Z,88.80
2017-09-05T02:38:54.855Z,89.00
2017-09-05T02:39:54.843Z,88.33
2017-09-05T02:40:54.829Z,88.42
2017-09-05T02:41:55.419Z,88.13
2017-09-05T02:42:54.805Z,88.33
2017-09-05T02:43:54.796Z,89.00
2017-09-05T02:44:54.779Z,88.80
2017-09-05T02:45:54.767Z,88.90
2017-09-05T02:46:54.757Z,88.90
2017-09-05T02:47:54.890Z,89.00
2017-09-05T02:48:54.729Z,89.18
2017-09-05T02:49:54.716Z,89.28
2017-09-05T02:50:54.703Z,89.37
2017-09-05T02:51:54.691Z,89.47
2017-09-05T02:52:54.678Z,89.18
2017-09-05T02:53:54.812Z,89.28
2017-09-05T02:54:54.654Z,89.09
2017-09-05T02:55:54.637Z,89.18
2017-09-05T02:56:54.625Z,89.75
2017-09-05T02:57:54.611Z,90.04
2017-09-05T02:58:54.600Z,89.85
2017-09-05T02:59:54.738Z,89.94
2017-09-05T03:00:54.576Z,89.85
2017-09-05T03:01:54.560Z,89.85
2017-09-05T03:02:54.549Z,89.66
2017-09-05T03:03:54.536Z,89.66
2017-09-05T03:04:54.524Z,89.75
2017-09-05T03:05:54.507Z,90.04
2017-09-05T03:06:54.496Z,89.85
2017-09-05T03:07:54.483Z,89.85
2017-09-05T03:08:54.622Z,89.85
2017-09-05T03:09:54.457Z,89.37
2017-09-05T03:10:54.443Z,89.85
2017-09-05T03:11:54.433Z,89.75
2017-09-05T03:12:54.420Z,89.56
2017-09-05T03:13:54.405Z,89.85
2017-09-05T03:14:54.545Z,89.94
2017-09-05T03:15:54.382Z,89.85
2017-09-05T03:16:54.368Z,89.56
2017-09-05T03:17:54.354Z,89.37
2017-09-05T03:18:54.341Z,89.47
2017-09-05T03:19:54.332Z,89.66
2017-09-05T03:20:54.468Z,89.37
2017-09-05T03:21:54.302Z,89.18
2017-09-05T03:22:54.294Z,89.37
2017-09-05T03:23:54.280Z,89.18
2017-09-05T03:24:54.264Z,89.18
2017-09-05T03:25:54.252Z,90.42
2017-09-05T03:26:54.389Z,89.85
2017-09-05T03:27:54.227Z,89.94
2017-09-05T03:28:54.215Z,90.23
2017-09-05T03:29:54.200Z,90.33
2017-09-05T03:30:54.188Z,91.18
2017-09-05T03:31:54.174Z,90.99
2017-09-05T03:32:54.314Z,91.08
2017-09-05T03:33:54.148Z,90.80
2017-09-05T03:34:54.135Z,90.89
2017-09-05T03:35:54.125Z,90.70
2017-09-05T03:36:54.116Z,90.61
2017-09-05T03:37:54.098Z,91.08
2017-09-05T03:38:54.086Z,89.94
2017-09-05T03:39:54.071Z,90.52
2017-09-05T03:40:54.061Z,90.33
2017-09-05T03:41:54.044Z,90.14
2017-09-05T03:42:54.034Z,90.42
2017-09-05T03:43:54.172Z,90.33
2017-09-05T03:44:54.010Z,90.33
2017-09-05T03:45:53.997Z,89.85
2017-09-05T03:46:53.984Z,89.85
2017-09-05T03:47:53.972Z,89.37
2017-09-05T03:48:53.958Z,89.85
2017-09-05T03:49:54.093Z,89.18
2017-09-05T03:50:53.932Z,89.47
2017-09-05T03:51:53.922Z,89.37
2017-09-05T03:52:53.906Z,89.47
2017-09-05T03:53:53.891Z,89.18
2017-09-05T03:54:53.881Z,89.66
2017-09-05T03:55:54.018Z,90.52
2017-09-05T03:56:53.854Z,90.23
2017-09-05T03:57:53.840Z,90.70
2017-09-05T03:58:53.829Z,90.99
2017-09-05T03:59:53.814Z,90.99
2017-09-05T04:00:53.809Z,90.89
2017-09-05T04:01:53.938Z,90.89
2017-09-05T04:02:53.775Z,90.80
2017-09-05T04:03:53.765Z,90.99
2017-09-05T04:04:53.752Z,91.08
2017-09-05T04:05:53.736Z,91.18
2017-09-05T04:06:53.725Z,91.18
2017-09-05T04:07:53.864Z,90.89
2017-09-05T04:08:53.700Z,90.99
2017-09-05T04:09:53.688Z,90.61
2017-09-05T04:10:53.671Z,90.70
2017-09-05T04:11:53.661Z,90.70
2017-09-05T04:12:53.648Z,90.61
2017-09-05T04:13:53.783Z,90.70
2017-09-05T04:14:53.620Z,90.61
2017-09-05T04:15:53.608Z,90.99
2017-09-05T04:16:53.597Z,90.70
2017-09-05T04:17:53.583Z,90.80
2017-09-05T04:18:53.571Z,91.08
2017-09-05T04:19:53.559Z,90.80
2017-09-05T04:20:53.545Z,90.61
2017-09-05T04:21:53.530Z,90.80
2017-09-05T04:22:53.516Z,90.70
2017-09-05T04:23:53.657Z,90.61
2017-09-05T04:24:53.493Z,90.33
2017-09-05T04:25:53.479Z,90.61
2017-09-05T04:26:53.465Z,90.70
2017-09-05T04:27:53.453Z,90.70
2017-09-05T04:28:53.440Z,90.70
2017-09-05T04:29:53.580Z,90.61
2017-09-05T04:30:53.544Z,90.70
2017-09-05T04:31:53.519Z,90.70
2017-09-05T04:32:53.388Z,90.61
2017-09-05T04:33:53.377Z,90.99
2017-09-05T04:34:53.364Z,90.33
2017-09-05T04:35:53.502Z,90.70
2017-09-05T04:36:53.345Z,90.70
2017-09-05T04:37:53.327Z,90.70
2017-09-05T04:38:53.316Z,90.80
2017-09-05T04:39:53.302Z,90.33
2017-09-05T04:40:53.288Z,90.23
2017-09-05T04:41:53.274Z,90.52
2017-09-05T04:42:53.262Z,90.61
2017-09-05T04:43:53.249Z,90.23
2017-09-05T04:44:53.236Z,90.33
2017-09-05T04:45:53.373Z,89.85
2017-09-05T04:46:53.212Z,89.94
2017-09-05T04:47:53.198Z,90.33
2017-09-05T04:48:53.187Z,90.04
2017-09-05T04:49:53.174Z,89.94
2017-09-05T04:50:53.162Z,90.04
2017-09-05T04:51:53.301Z,90.42
2017-09-05T04:52:53.137Z,90.04
2017-09-05T04:53:53.124Z,89.85
2017-09-05T04:54:53.110Z,90.42
2017-09-05T04:55:53.099Z,90.33
2017-09-05T04:56:53.085Z,90.04
2017-09-05T04:57:53.223Z,90.23
2017-09-05T04:58:53.058Z,90.42
2017-09-05T04:59:53.048Z,89.75
2017-09-05T05:00:53.034Z,90.04
2017-09-05T05:01:53.021Z,90.14
2017-09-05T05:02:53.008Z,90.23
2017-09-05T05:03:53.145Z,90.33
2017-09-05T05:04:52.983Z,90.23
2017-09-05T05:05:52.995Z,89.85
2017-09-05T05:06:52.959Z,90.04
2017-09-05T05:07:52.947Z,90.52
2017-09-05T05:08:52.934Z,90.70
2017-09-05T05:09:53.071Z,90.61
2017-09-05T05:10:52.908Z,90.70
2017-09-05T05:11:52.894Z,90.61
2017-09-05T05:12:52.887Z,90.70
2017-09-05T05:13:52.870Z,90.61
2017-09-05T05:14:52.856Z,90.70
2017-09-05T05:15:52.997Z,90.99
2017-09-05T05:16:52.832Z,90.70
2017-09-05T05:17:52.817Z,90.70
2017-09-05T05:18:52.807Z,90.70
2017-09-05T05:19:52.793Z,90.33
2017-09-05T05:20:52.781Z,90.70
2017-09-05T05:21:52.917Z,90.89
2017-09-05T05:22:52.755Z,90.80
2017-09-05T05:23:52.744Z,90.61
2017-09-05T05:24:52.728Z,90.99
2017-09-05T05:25:52.715Z,90.89
2017-09-05T05:26:52.704Z,92.41
2017-09-05T05:27:52.841Z,92.89
2017-09-05T05:28:52.680Z,93.41
2017-09-05T05:29:52.698Z,92.03
2017-09-05T05:30:52.655Z,92.03
2017-09-05T05:31:52.641Z,91.94
2017-09-05T05:32:52.628Z,91.56
2017-09-05T05:33:52.764Z,91.47
2017-09-05T05:34:52.607Z,91.18
2017-09-05T05:35:52.593Z,91.66
2017-09-05T05:36:52.578Z,90.89
2017-09-05T05:37:52.564Z,91.37
2017-09-05T05:38:52.554Z,91.56
2017-09-05T05:39:52.689Z,91.18
2017-09-05T05:40:52.527Z,91.22
2017-09-05T05:41:52.515Z,91.61
2017-09-05T05:42:52.502Z,91.42
2017-09-05T05:43:52.490Z,90.94
2017-09-05T05:44:52.479Z,91.03
2017-09-05T05:45:52.616Z,91.22
2017-09-05T05:46:52.451Z,91.22
2017-09-05T05:47:52.441Z,90.94
2017-09-05T05:48:52.426Z,91.03
2017-09-05T05:49:52.420Z,91.51
2017-09-05T05:50:52.402Z,92.18
2017-09-05T05:51:52.539Z,91.51
2017-09-05T05:52:52.379Z,91.51
2017-09-05T05:53:52.366Z,91.51
2017-09-05T05:54:52.351Z,91.42
2017-09-05T05:55:52.338Z,91.61
2017-09-05T05:56:52.325Z,91.32
2017-09-05T05:57:52.515Z,91.61
2017-09-05T05:58:52.303Z,91.42
2017-09-05T05:59:52.294Z,91.42
2017-09-05T06:00:52.280Z,91.61
2017-09-05T06:01:52.261Z,91.51
2017-09-05T06:02:52.252Z,91.51
2017-09-05T06:03:52.241Z,91.32
2017-09-05T06:04:52.226Z,91.32
2017-09-05T06:05:52.218Z,90.94
2017-09-05T06:06:52.201Z,91.32
2017-09-05T06:07:52.190Z,91.03
2017-09-05T06:08:52.329Z,91.13
2017-09-05T06:09:52.163Z,90.94
2017-09-05T06:10:52.152Z,90.37
2017-09-05T06:11:52.172Z,91.03
2017-09-05T06:12:52.128Z,90.37
2017-09-05T06:13:52.114Z,91.80
2017-09-05T06:14:52.401Z,90.66
2017-09-05T06:15:52.090Z,90.84
2017-09-05T06:16:52.079Z,91.99
2017-09-05T06:17:52.062Z,91.80
2017-09-05T06:18:52.052Z,92.18
2017-09-05T06:19:52.040Z,92.75
2017-09-05T06:20:52.179Z,92.08
2017-09-05T06:21:52.020Z,92.65
2017-09-05T06:22:52.003Z,92.46
2017-09-05T06:23:51.989Z,92.18
2017-09-05T06:24:51.978Z,91.99
2017-09-05T06:25:51.963Z,91.42
2017-09-05T06:26:52.101Z,91.22
2017-09-05T06:27:51.938Z,91.61
2017-09-05T06:28:51.928Z,91.51
2017-09-05T06:29:51.914Z,91.80
2017-09-05T06:30:51.938Z,91.89
2017-09-05T06:31:51.889Z,92.08
2017-09-05T06:32:52.027Z,92.27
2017-09-05T06:33:51.865Z,91.80
2017-09-05T06:34:51.850Z,91.61
2017-09-05T06:35:51.838Z,91.42
2017-09-05T06:36:51.825Z,91.61
2017-09-05T06:37:51.814Z,92.75
2017-09-05T06:38:51.950Z,93.51
2017-09-05T06:39:51.788Z,93.41
2017-09-05T06:40:51.775Z,93.60
2017-09-05T06:41:51.763Z,93.51
2017-09-05T06:42:51.749Z,93.51
2017-09-05T06:43:51.737Z,93.60
2017-09-05T06:44:51.876Z,93.79
2017-09-05T06:45:51.713Z,93.41
2017-09-05T06:46:51.700Z,93.13
2017-09-05T06:47:51.692Z,93.41
2017-09-05T06:48:51.676Z,93.60
2017-09-05T06:49:51.661Z,93.32
2017-09-05T06:50:51.800Z,93.79
2017-09-05T06:51:51.636Z,93.79
2017-09-05T06:52:51.775Z,93.51
2017-09-05T06:53:51.611Z,93.79
2017-09-05T06:54:51.597Z,93.32
2017-09-05T06:55:51.586Z,93.08
2017-09-05T06:56:51.725Z,93.94
2017-09-05T06:57:51.562Z,93.84
2017-09-05T06:58:51.551Z,93.27
2017-09-05T06:59:51.537Z,93.65
2017-09-05T07:00:51.528Z,93.74
2017-09-05T07:01:51.512Z,93.94
2017-09-05T07:02:51.652Z,93.27
2017-09-05T07:03:51.488Z,93.18
2017-09-05T07:04:51.479Z,92.79
2017-09-05T07:05:51.465Z,92.13
2017-09-05T07:06:51.451Z,92.41
2017-09-05T07:07:51.589Z,92.79
2017-09-05T07:08:51.577Z,92.89
2017-09-05T07:09:51.415Z,92.70
2017-09-05T07:10:51.402Z,92.89
2017-09-05T07:11:51.391Z,92.03
2017-09-05T07:12:51.378Z,92.70
2017-09-05T07:13:51.370Z,93.18
2017-09-05T07:14:51.503Z,93.04
2017-09-05T07:15:51.489Z,93.60
2017-09-05T07:16:51.326Z,93.60
2017-09-05T07:17:51.317Z,93.51
2017-09-05T07:18:51.304Z,93.70
2017-09-05T07:19:51.292Z,92.84
2017-09-05T07:20:51.430Z,93.23
2017-09-05T07:21:51.266Z,92.65
2017-09-05T07:22:51.255Z,93.08
2017-09-05T07:23:51.240Z,94.13
2017-09-05T07:24:51.229Z,93.27
2017-09-05T07:25:51.215Z,93.55
2017-09-05T07:26:51.355Z,93.84
2017-09-05T07:27:51.191Z,93.55
2017-09-05T07:28:51.180Z,93.84
2017-09-05T07:29:51.166Z,93.27
2017-09-05T07:30:51.156Z,93.27
2017-09-05T07:31:51.142Z,93.98
2017-09-05T07:32:51.279Z,93.70
2017-09-05T07:33:51.118Z,93.60
2017-09-05T07:34:51.107Z,93.60
2017-09-05T07:35:51.095Z,92.84
2017-09-05T07:36:51.085Z,92.74
2017-09-05T07:37:51.069Z,92.60
2017-09-05T07:38:51.058Z,91.08
2017-09-05T07:39:51.046Z,89.36
2017-09-05T07:40:51.034Z,88.22
2017-09-05T07:41:51.023Z,90.22
2017-09-05T07:42:51.162Z,90.70
2017-09-05T07:43:50.999Z,89.55
2017-09-05T07:44:50.988Z,88.31
2017-09-05T07:45:50.978Z,88.03
2017-09-05T07:46:50.966Z,89.22
2017-09-05T07:47:50.954Z,87.69
2017-09-05T07:48:51.095Z,87.02
2017-09-05T07:49:50.932Z,88.21
2017-09-05T07:50:50.921Z,88.21
2017-09-05T07:51:50.911Z,87.87
2017-09-05T07:52:50.900Z,88.40
2017-09-05T07:53:50.888Z,85.91
2017-09-05T07:54:51.027Z,80.80
2017-09-05T07:55:50.866Z,79.36
2017-09-05T07:56:50.861Z,78.70
2017-09-05T07:57:50.846Z,78.18
2017-09-05T07:58:50.836Z,78.94
2017-09-05T07:59:50.973Z,79.43
2017-09-05T08:00:50.815Z,79.38
2017-09-05T08:01:50.804Z,79.38
2017-09-05T08:02:50.794Z,79.63
2017-09-05T08:03:50.784Z,80.11
2017-09-05T08:04:50.778Z,80.68
2017-09-05T08:05:50.763Z,80.39
2017-09-05T08:06:50.752Z,81.15
2017-09-05T08:07:50.743Z,81.35
2017-09-05T08:08:50.883Z,81.25
2017-09-05T08:09:50.722Z,81.25
2017-09-05T08:10:51.010Z,82.40
2017-09-05T08:11:50.700Z,82.97
2017-09-05T08:12:50.690Z,83.16
2017-09-05T08:13:50.679Z,80.87
2017-09-05T08:14:50.824Z,80.30
2017-09-05T08:15:50.661Z,79.15
2017-09-05T08:16:50.649Z,78.86
2017-09-05T08:17:50.940Z,79.72
2017-09-05T08:18:50.628Z,80.20
2017-09-05T08:19:50.620Z,81.54
2017-09-05T08:20:50.758Z,80.77
2017-09-05T08:21:50.598Z,80.39
2017-09-05T08:22:50.586Z,81.63
2017-09-05T08:23:50.580Z,85.12
2017-09-05T08:24:50.568Z,87.02
2017-09-05T08:25:50.557Z,86.83
2017-09-05T08:26:50.695Z,85.31
2017-09-05T08:27:50.685Z,86.45
2017-09-05T08:28:50.524Z,85.88
2017-09-05T08:29:50.516Z,86.65
2017-09-05T08:30:50.510Z,87.02
2017-09-05T08:31:50.494Z,86.49
2017-09-05T08:32:50.484Z,87.07
2017-09-05T08:33:50.623Z,84.88
2017-09-05T08:34:50.460Z,82.68
2017-09-05T08:35:50.453Z,81.54
2017-09-05T08:36:50.441Z,82.20
2017-09-05T08:37:50.432Z,81.58
2017-09-05T08:38:50.420Z,79.28
2017-09-05T08:39:50.410Z,80.15
2017-09-05T08:40:50.400Z,81.71
2017-09-05T08:41:50.538Z,80.95
2017-09-05T08:42:50.389Z,81.43
2017-09-05T08:43:50.371Z,80.09
2017-09-05T08:44:50.359Z,80.19
2017-09-05T08:45:50.349Z,80.76
2017-09-05T08:46:50.340Z,80.19
2017-09-05T08:47:50.478Z,80.09
2017-09-05T08:48:50.319Z,79.80
2017-09-05T08:49:50.308Z,78.94
2017-09-05T08:50:50.299Z,78.75
2017-09-05T08:51:50.289Z,78.75
2017-09-05T08:52:50.429Z,78.66
2017-09-05T08:53:50.420Z,77.80
2017-09-05T08:54:50.260Z,79.43
2017-09-05T08:55:50.250Z,80.38
2017-09-05T08:56:50.242Z,79.36
2017-09-05T08:57:50.229Z,79.65
2017-09-05T08:58:50.519Z,77.94
2017-09-05T08:59:50.363Z,75.68
2017-09-05T09:00:50.208Z,73.77
2017-09-05T09:01:50.199Z,74.44
2017-09-05T09:02:50.189Z,75.16
2017-09-05T09:03:50.176Z,77.08
2017-09-05T09:04:50.165Z,75.54
2017-09-05T09:05:50.306Z,76.12
2017-09-05T09:06:50.147Z,75.83
2017-09-05T09:07:50.139Z,75.64
2017-09-05T09:08:50.129Z,75.07
2017-09-05T09:09:50.118Z,76.79
2017-09-05T09:10:50.111Z,75.26
2017-09-05T09:11:50.250Z,77.36
2017-09-05T09:12:50.091Z,75.93
2017-09-05T09:13:50.082Z,75.64
2017-09-05T09:14:50.073Z,75.83
2017-09-05T09:15:50.066Z,75.74
2017-09-05T09:16:50.055Z,76.31
2017-09-05T09:17:50.048Z,77.26
2017-09-05T09:18:50.039Z,76.16
2017-09-05T09:19:50.031Z,79.31
2017-09-05T09:20:50.020Z,78.36
2017-09-05T09:21:50.010Z,78.07
2017-09-05T09:22:50.003Z,77.50
2017-09-05T09:23:49.993Z,78.07
2017-09-05T09:24:49.984Z,76.64
2017-09-05T09:25:49.975Z,76.06
2017-09-05T09:26:50.149Z,75.59
2017-09-05T09:27:49.957Z,75.68
2017-09-05T09:28:49.950Z,75.78
2017-09-05T09:29:49.939Z,75.43
2017-09-05T09:30:49.931Z,76.86
2017-09-05T09:31:49.924Z,76.67
2017-09-05T09:32:50.065Z,74.09
2017-09-05T09:33:49.911Z,73.84
2017-09-05T09:34:50.050Z,74.65
2017-09-05T09:35:49.888Z,74.07
2017-09-05T09:36:49.883Z,70.91
2017-09-05T09:37:49.873Z,69.09
2017-09-05T09:38:50.014Z,70.53
2017-09-05T09:39:49.858Z,71.23
2017-09-05T09:40:49.850Z,69.03
2017-09-05T09:41:49.838Z,72.16
2017-09-05T09:42:49.833Z,73.79
2017-09-05T09:43:49.827Z,70.91
2017-09-05T09:44:49.817Z,72.83
2017-09-05T09:45:49.811Z,73.79
2017-09-05T09:46:49.952Z,74.97
2017-09-05T09:47:49.945Z,74.33
2017-09-05T09:48:49.786Z,70.89
2017-09-05T09:49:49.780Z,71.14
2017-09-05T09:50:49.775Z,70.28
2017-09-05T09:51:49.766Z,69.03
2017-09-05T09:52:49.756Z,68.13
2017-09-05T09:53:49.900Z,70.24
2017-09-05T09:54:49.741Z,71.39
2017-09-05T09:55:49.734Z,69.86
2017-09-05T09:56:49.727Z,72.16
2017-09-05T09:57:49.719Z,68.62
2017-09-05T09:58:49.712Z,71.68
2017-09-05T09:59:49.703Z,68.27
2017-09-05T10:00:49.799Z,69.89
2017-09-05T10:01:49.689Z,69.60
2017-09-05T10:02:49.682Z,68.65
2017-09-05T10:03:49.675Z,68.55
2017-09-05T10:04:49.818Z,67.98
2017-09-05T10:05:49.657Z,67.69
2017-09-05T10:06:49.650Z,66.83
2017-09-05T10:07:49.644Z,66.93
2017-09-05T10:08:49.636Z,68.11
2017-09-05T10:09:49.780Z,69.17
2017-09-05T10:10:49.771Z,68.87
2017-09-05T10:11:49.614Z,69.96
2017-09-05T10:12:49.608Z,69.33
2017-09-05T10:13:49.599Z,65.33
2017-09-05T10:14:49.592Z,63.83
2017-09-05T10:15:49.585Z,63.89
2017-09-05T10:16:49.730Z,61.88
2017-09-05T10:17:49.571Z,59.96
2017-09-05T10:18:49.565Z,61.21
2017-09-05T10:19:49.559Z,61.30
2017-09-05T10:20:49.857Z,60.82
2017-09-05T10:21:49.547Z,62.36
2017-09-05T10:22:49.542Z,63.12
2017-09-05T10:23:49.685Z,62.74
2017-09-05T10:24:49.528Z,62.04
2017-09-05T10:25:49.521Z,61.37
2017-09-05T10:26:49.514Z,62.16
2017-09-05T10:27:49.507Z,63.42
2017-09-05T10:28:49.501Z,60.92
2017-09-05T10:29:49.646Z,60.41
2017-09-05T10:30:49.487Z,62.42
2017-09-05T10:31:49.485Z,63.86
2017-09-05T10:32:49.484Z,64.82
2017-09-05T10:33:49.471Z,67.22
2017-09-05T10:34:49.464Z,67.12
2017-09-05T10:35:49.608Z,65.39
2017-09-05T10:36:49.453Z,66.00
2017-09-05T10:37:49.596Z,65.52
2017-09-05T10:38:49.439Z,65.91
2017-09-05T10:39:49.433Z,65.81
2017-09-05T10:40:49.428Z,67.16
2017-09-05T10:41:49.570Z,66.19
2017-09-05T10:42:49.413Z,67.06
2017-09-05T10:43:49.410Z,65.33
2017-09-05T10:44:49.402Z,66.00
2017-09-05T10:45:49.395Z,68.02
2017-09-05T10:46:49.388Z,65.75
2017-09-05T10:47:49.533Z,65.56
2017-09-05T10:48:49.379Z,61.78
2017-09-05T10:49:49.369Z,64.89
2017-09-05T10:50:49.666Z,64.89
2017-09-05T10:51:49.359Z,62.26
2017-09-05T10:52:49.355Z,61.72
2017-09-05T10:53:49.496Z,63.32
2017-09-05T10:54:49.347Z,62.74
2017-09-05T10:55:49.336Z,59.80
2017-09-05T10:56:49.330Z,61.14
2017-09-05T10:57:49.322Z,59.32
2017-09-05T10:58:49.316Z,59.80
2017-09-05T10:59:49.312Z,62.01
2017-09-05T11:00:49.457Z,61.72
2017-09-05T11:01:49.300Z,58.36
2017-09-05T11:02:49.292Z,57.08
2017-09-05T11:03:49.287Z,57.65
2017-09-05T11:04:49.283Z,58.91
2017-09-05T11:05:49.277Z,60.35
2017-09-05T11:06:49.422Z,59.58
2017-09-05T11:07:49.416Z,59.48
2017-09-05T11:08:49.261Z,59.86
2017-09-05T11:09:49.252Z,59.77
2017-09-05T11:10:49.245Z,60.25
2017-09-05T11:11:49.241Z,62.26
2017-09-05T11:12:49.237Z,59.86
2017-09-05T11:13:49.230Z,57.65
2017-09-05T11:14:49.223Z,64.37
2017-09-05T11:15:49.218Z,58.64
2017-09-05T11:16:49.361Z,57.59
2017-09-05T11:17:49.203Z,60.78
2017-09-05T11:18:49.198Z,56.76
2017-09-05T11:19:49.195Z,55.51
2017-09-05T11:20:49.189Z,56.76
2017-09-05T11:21:49.180Z,55.12
2017-09-05T11:22:49.325Z,57.84
2017-09-05T11:23:49.170Z,53.30
2017-09-05T11:24:49.167Z,52.91
2017-09-05T11:25:49.160Z,52.05
2017-09-05T11:26:49.154Z,53.01
2017-09-05T11:27:49.147Z,55.99
2017-09-05T11:28:49.294Z,58.77
2017-09-05T11:29:49.138Z,57.43
2017-09-05T11:30:49.130Z,51.09
2017-09-05T11:31:49.126Z,44.84
2017-09-05T11:32:49.120Z,43.31
2017-09-05T11:33:49.115Z,46.58
2017-09-05T11:34:49.257Z,47.15
2017-09-05T11:35:49.104Z,53.49
2017-09-05T11:36:49.098Z,51.76
2017-09-05T11:37:49.093Z,50.03
2017-09-05T11:38:49.086Z,52.50
2017-09-05T11:39:49.081Z,51.83
2017-09-05T11:40:49.226Z,50.87
2017-09-05T11:41:49.067Z,52.02
2017-09-05T11:42:49.065Z,52.50
2017-09-05T11:43:49.058Z,52.67
2017-09-05T11:44:49.054Z,50.84
2017-09-05T11:45:49.347Z,50.27
2017-09-05T11:46:49.191Z,49.41
2017-09-05T11:47:49.037Z,49.69
2017-09-05T11:48:49.031Z,50.84
2017-09-05T11:49:49.023Z,50.84
2017-09-05T11:50:49.019Z,50.46
2017-09-05T11:51:49.012Z,49.50
2017-09-05T11:52:49.156Z,48.64
2017-09-05T11:53:48.998Z,49.05
2017-09-05T11:54:48.996Z,50.10
2017-09-05T11:55:48.986Z,50.58
2017-09-05T11:56:48.983Z,49.24
2017-09-05T11:57:48.975Z,47.03
2017-09-05T11:58:49.121Z,47.63
2017-09-05T11:59:48.965Z,45.98
2017-09-05T12:00:48.959Z,44.73
2017-09-05T12:01:48.951Z,45.01
2017-09-05T12:02:48.949Z,47.89
2017-09-05T12:03:48.940Z,45.88
2017-09-05T12:04:49.086Z,45.78
2017-09-05T12:05:48.930Z,49.07
2017-09-05T12:06:48.923Z,49.65
2017-09-05T12:07:48.916Z,48.88
2017-09-05T12:08:48.910Z,48.30
2017-09-05T12:09:48.904Z,45.25
2017-09-05T12:10:49.051Z,44.94
2017-09-05T12:11:48.893Z,47.44
2017-09-05T12:12:48.889Z,47.75
2017-09-05T12:13:48.881Z,48.71
2017-09-05T12:14:48.877Z,49.00
2017-09-05T12:15:48.872Z,47.85
2017-09-05T12:16:48.867Z,46.50
2017-09-05T12:17:48.857Z,48.71
2017-09-05T12:18:48.854Z,48.83
2017-09-05T12:19:48.848Z,48.54
2017-09-05T12:20:48.995Z,46.53
2017-09-05T12:21:48.836Z,44.60
2017-09-05T12:22:48.832Z,45.92
2017-09-05T12:23:48.826Z,46.59
2017-09-05T12:24:48.820Z,49.48
2017-09-05T12:25:48.817Z,50.34
2017-09-05T12:26:48.960Z,44.51
2017-09-05T12:27:48.804Z,44.79
2017-09-05T12:28:48.799Z,46.33
2017-09-05T12:29:48.795Z,47.08
2017-09-05T12:30:48.791Z,46.79
2017-09-05T12:31:48.784Z,47.56
2017-09-05T12:32:49.083Z,46.48
2017-09-05T12:33:48.924Z,47.82
2017-09-05T12:34:48.778Z,45.61
2017-09-05T12:35:48.761Z,46.09
2017-09-05T12:36:48.756Z,46.09
2017-09-05T12:37:48.754Z,47.22
2017-09-05T12:38:48.745Z,45.30
2017-09-05T12:39:48.741Z,43.57
2017-09-05T12:40:48.887Z,45.98
2017-09-05T12:41:48.730Z,46.36
2017-09-05T12:42:48.723Z,47.71
2017-09-05T12:43:48.720Z,47.71
2017-09-05T12:44:48.716Z,48.85
2017-09-05T12:45:48.708Z,49.05
2017-09-05T12:46:48.850Z,47.32
2017-09-05T12:47:48.696Z,44.82
2017-09-05T12:48:48.689Z,46.36
2017-09-05T12:49:48.683Z,47.80
2017-09-05T12:50:48.680Z,46.94
2017-09-05T12:51:48.672Z,47.22
2017-09-05T12:52:48.818Z,46.26